Darstellungsparameter: Aktuell verwendete Einstellungen:
Skalierung der Graphiken ... ?
xyx+y,   Skalierungsfaktor:      Skalierung: Modus: x, Faktor: 1
Darstellungszeitraum ... ?
Vom - - bis: - -   Zeitraum: 05.03.2021 - 05.03.2021
Min/Max/Avg-Anzeige ... ?
Zeige MMA aktuell
Zeige MMA Monat
Zeige MMA alles
Zeige --A aktuell
Zeige --A Monat
Zeige --A alles
Keine MMA-Anzeige
MMA:
Average (ber die Originaldaten)
MMA-Basis: 05.03.2021 - 05.03.2021
Quicknavigation für Darstellung... ?
Tage:      1T, 2T, 3T, 5T -1T -2T -3T -5T +1T +2T +3T +5T
Wochen: 1W, 2W, 3W -1W -2W -3W +1W +2W +3W
Monate: 1M, 3M, 6M -1M -3M -6M +1M +3M +6M
Jahre:    1J, 3J, 5J, 10J -1J -3J -5J -10J +1J +3J +5J +10J
Nutze für die Darstellung ... ?
Originaldaten oder Mittelwerte auf ...
Stundenbasis Tagesbasis Wochenbasis
Monatsbasis Jahresbasis      Datenbasis: Original-Daten
Darstellen als:
Statistik (Auto) Statistik J:M      Darstellung:

Der gewünschte Datumsbereich war nicht gültig/verfügbar und wurde korrigiert....
Das angegebene Enddatum (07.03.2021 23:59:59) liegt in der Zukunft.
Das angegebene Startdatum (07.03.2021 00:00:00) liegt in der Zukunft.


Zur Graphik,    zurück zur Übersicht aller Sensoren.
 
Tabellarische Datenbersicht: ?
 
Sensor: Nr:Datum:Temp:Abs-Feuchte:Windchill:Wind:
Aussen-T/F 1 05-03-2021 01:00:00 4.1 C 6.02 g/m*3 4.1 C 0 km/h
2 05-03-2021 01:05:00 4.1 C 6.02 g/m*3 4.1 C 0 km/h
3 05-03-2021 01:10:00 4.1 C 6.02 g/m*3 4.1 C 0 km/h
4 05-03-2021 01:15:00 4.1 C 6.02 g/m*3 4.1 C 1.6 km/h
5 05-03-2021 01:20:00 4.1 C 6.02 g/m*3 4.1 C 1.6 km/h
6 05-03-2021 01:25:00 4.1 C 6.02 g/m*3 4.1 C 0 km/h
7 05-03-2021 01:30:00 4.1 C 6.02 g/m*3 4.1 C 1.6 km/h
8 05-03-2021 01:35:00 4.1 C 6.02 g/m*3 4.1 C 1.6 km/h
9 05-03-2021 01:40:00 4.1 C 6.02 g/m*3 4.1 C 0 km/h
10 05-03-2021 01:45:00 4.1 C 6.02 g/m*3 4.1 C 0 km/h
11 05-03-2021 01:50:00 4.1 C 6.02 g/m*3 4.1 C 0 km/h
12 05-03-2021 01:55:00 4.1 C 6.02 g/m*3 4.1 C 1.6 km/h
13 05-03-2021 02:00:00 4.1 C 6.02 g/m*3 4.1 C 1.6 km/h
14 05-03-2021 02:05:00 4.2 C 6.06 g/m*3 4.2 C 1.6 km/h
15 05-03-2021 02:10:00 4.2 C 6.06 g/m*3 4.2 C 0 km/h
16 05-03-2021 02:15:00 4.2 C 6.06 g/m*3 2.67 C 6.4 km/h
17 05-03-2021 02:20:00 4.2 C 6.06 g/m*3 1.77 C 9.7 km/h
18 05-03-2021 02:25:00 4.2 C 6.06 g/m*3 4.2 C 3.2 km/h
19 05-03-2021 02:30:00 4.2 C 6.06 g/m*3 2.17 C 8.1 km/h
20 05-03-2021 02:35:00 4.2 C 5.99 g/m*3 0.84 C 14.5 km/h
21 05-03-2021 02:40:00 4.1 C 5.89 g/m*3 0.72 C 14.5 km/h
22 05-03-2021 02:45:00 4.1 C 5.89 g/m*3 4.1 C 4.8 km/h
23 05-03-2021 02:50:00 4.1 C 5.89 g/m*3 2.05 C 8.1 km/h
24 05-03-2021 02:55:00 4.1 C 5.82 g/m*3 1.65 C 9.7 km/h
25 05-03-2021 03:00:00 4.1 C 5.82 g/m*3 2.05 C 8.1 km/h
Sensor: Nr:Datum:Temp:Abs-Feuchte:Windchill:Wind:
Aussen-T/F 26 05-03-2021 03:05:00 4.1 C 5.76 g/m*3 2.05 C 8.1 km/h
27 05-03-2021 03:10:00 4.1 C 5.76 g/m*3 4.1 C 4.8 km/h
28 05-03-2021 03:15:00 4.1 C 5.76 g/m*3 4.1 C 4.8 km/h
29 05-03-2021 03:20:00 4.1 C 5.82 g/m*3 4.1 C 1.6 km/h
30 05-03-2021 03:25:00 4 C 5.72 g/m*3 1.93 C 8.1 km/h
31 05-03-2021 03:30:00 3.9 C 5.68 g/m*3 2.32 C 6.4 km/h
32 05-03-2021 03:35:00 3.9 C 5.68 g/m*3 2.32 C 6.4 km/h
33 05-03-2021 03:40:00 3.9 C 5.68 g/m*3 2.32 C 6.4 km/h
34 05-03-2021 03:45:00 3.8 C 5.58 g/m*3 2.21 C 6.4 km/h
35 05-03-2021 03:50:00 3.8 C 5.58 g/m*3 2.21 C 6.4 km/h
36 05-03-2021 03:55:00 3.8 C 5.58 g/m*3 2.21 C 6.4 km/h
37 05-03-2021 04:00:00 3.8 C 5.58 g/m*3 3.8 C 4.8 km/h
38 05-03-2021 04:05:00 3.7 C 5.55 g/m*3 2.09 C 6.4 km/h
39 05-03-2021 04:10:00 3.7 C 5.48 g/m*3 3.7 C 4.8 km/h
40 05-03-2021 04:15:00 3.7 C 5.48 g/m*3 3.7 C 4.8 km/h
41 05-03-2021 04:20:00 3.7 C 5.48 g/m*3 3.7 C 4.8 km/h
42 05-03-2021 04:25:00 3.6 C 5.45 g/m*3 1.46 C 8.1 km/h
43 05-03-2021 04:30:00 3.6 C 5.39 g/m*3 1.98 C 6.4 km/h
44 05-03-2021 04:35:00 3.6 C 5.39 g/m*3 1.46 C 8.1 km/h
45 05-03-2021 04:40:00 3.6 C 5.39 g/m*3 1.46 C 8.1 km/h
46 05-03-2021 04:45:00 3.5 C 5.35 g/m*3 1.34 C 8.1 km/h
47 05-03-2021 04:50:00 3.5 C 5.41 g/m*3 1.86 C 6.4 km/h
48 05-03-2021 04:55:00 3.5 C 5.35 g/m*3 0.94 C 9.7 km/h
49 05-03-2021 05:00:00 3.4 C 5.31 g/m*3 1.23 C 8.1 km/h
50 05-03-2021 05:05:00 3.4 C 5.31 g/m*3 3.4 C 4.8 km/h
Sensor: Nr:Datum:Temp:Abs-Feuchte:Windchill:Wind:
Aussen-T/F 51 05-03-2021 05:10:00 3.3 C 5.28 g/m*3 1.63 C 6.4 km/h
52 05-03-2021 05:15:00 3.3 C 5.34 g/m*3 3.3 C 0 km/h
53 05-03-2021 05:20:00 3.3 C 5.34 g/m*3 3.3 C 0 km/h
54 05-03-2021 05:25:00 3.3 C 5.34 g/m*3 3.3 C 0 km/h
55 05-03-2021 05:30:00 3.2 C 5.36 g/m*3 3.2 C 1.6 km/h
56 05-03-2021 05:35:00 3.2 C 5.36 g/m*3 3.2 C 1.6 km/h
57 05-03-2021 05:40:00 3.2 C 5.36 g/m*3 3.2 C 0 km/h
58 05-03-2021 05:45:00 3.2 C 5.36 g/m*3 3.2 C 0 km/h
59 05-03-2021 05:50:00 3.1 C 5.33 g/m*3 3.1 C 4.8 km/h
60 05-03-2021 05:55:00 3.1 C 5.33 g/m*3 3.1 C 1.6 km/h
61 05-03-2021 06:00:00 3.1 C 5.39 g/m*3 3.1 C 1.6 km/h
62 05-03-2021 06:05:00 3.1 C 5.39 g/m*3 3.1 C 0 km/h
63 05-03-2021 06:10:00 3.1 C 5.39 g/m*3 3.1 C 1.6 km/h
64 05-03-2021 06:15:00 3.1 C 5.39 g/m*3 3.1 C 0 km/h
65 05-03-2021 06:20:00 3.1 C 5.39 g/m*3 3.1 C 0 km/h
66 05-03-2021 06:25:00 3.1 C 5.39 g/m*3 3.1 C 0 km/h
67 05-03-2021 06:30:00 3.1 C 5.39 g/m*3 3.1 C 0 km/h
68 05-03-2021 06:35:00 3.1 C 5.39 g/m*3 3.1 C 3.2 km/h
69 05-03-2021 06:40:00 3.1 C 5.39 g/m*3 3.1 C 1.6 km/h
70 05-03-2021 06:45:00 3.1 C 5.39 g/m*3 3.1 C 0 km/h
71 05-03-2021 06:50:00 3.1 C 5.39 g/m*3 3.1 C 4.8 km/h
72 05-03-2021 06:55:00 3.2 C 5.42 g/m*3 3.2 C 1.6 km/h
73 05-03-2021 07:00:00 3.2 C 5.42 g/m*3 3.2 C 3.2 km/h
74 05-03-2021 07:05:00 3.2 C 5.42 g/m*3 0.58 C 9.7 km/h
75 05-03-2021 07:10:00 3.2 C 5.42 g/m*3 3.2 C 4.8 km/h
Sensor: Nr:Datum:Temp:Abs-Feuchte:Windchill:Wind:
Aussen-T/F 76 05-03-2021 07:15:00 3.2 C 5.42 g/m*3 3.2 C 4.8 km/h
77 05-03-2021 07:20:00 3.2 C 5.42 g/m*3 3.2 C 3.2 km/h
78 05-03-2021 07:25:00 3.2 C 5.42 g/m*3 3.2 C 4.8 km/h
79 05-03-2021 07:30:00 3.2 C 5.42 g/m*3 3.2 C 4.8 km/h
80 05-03-2021 07:35:00 3.2 C 5.42 g/m*3 1.51 C 6.4 km/h
81 05-03-2021 07:40:00 3.2 C 5.48 g/m*3 3.2 C 0 km/h
82 05-03-2021 07:45:00 3.2 C 5.48 g/m*3 3.2 C 1.6 km/h
83 05-03-2021 07:50:00 3.2 C 5.48 g/m*3 3.2 C 0 km/h

Legende:
   Min
   Max


Maximal/Minimal-Werte vom 05.03.2021 - 05.03.2021

Sensor Min Max Avg
Temp
(Aussen-T/F)
3.1 °C
05-03-2021  05:50:00
4.2 °C
05-03-2021  02:05:00
3.63 °C
Abs-Feuchte
(Aussen-T/F)
5.28 g/m*3
05-03-2021  05:10:00
6.06 g/m*3
05-03-2021  02:05:00
5.55 g/m*3
Windchill
(Aussen-T/F)
0.58 C
05-03-2021  07:05:00
4.2 C
05-03-2021  02:05:00
2.91 C

Die Daten stammen von einer Davis Vantage Pro 2 Wetter-Station und werden unter Linux mit der Software wview2wettercgi und aufbereitet. Alle Angaben erfolgen ohne Gewähr für ihre Vollständigkeit oder Richtigkeit.
Kontakt: Rainer Krienke krienke@uni-koblenz.de . Meine Webseiten an der Uni Koblenz oder privat.
Version: $Revision: 0.78 $